createdAt,value
2017-12-01T00:00:40.640Z,0.00
2017-12-01T00:01:40.610Z,0.00
2017-12-01T00:02:40.586Z,0.00
2017-12-01T00:03:40.559Z,0.00
2017-12-01T00:04:40.535Z,0.00
2017-12-01T00:05:40.508Z,0.00
2017-12-01T00:06:40.483Z,0.00
2017-12-01T00:07:40.458Z,0.00
2017-12-01T00:08:40.432Z,0.00
2017-12-01T00:09:40.406Z,0.00
2017-12-01T00:10:40.381Z,0.00
2017-12-01T00:11:40.353Z,0.00
2017-12-01T00:12:40.329Z,0.00
2017-12-01T00:13:40.302Z,0.00
2017-12-01T00:14:40.276Z,0.00
2017-12-01T00:15:40.251Z,0.00
2017-12-01T00:16:40.224Z,0.00
2017-12-01T00:17:40.198Z,0.00
2017-12-01T00:18:40.177Z,0.00
2017-12-01T00:19:40.149Z,0.00
2017-12-01T00:20:40.122Z,0.00
2017-12-01T00:21:40.095Z,0.00
2017-12-01T00:22:40.071Z,0.00
2017-12-01T00:23:40.044Z,0.00
2017-12-01T00:24:40.017Z,0.00
2017-12-01T00:25:39.991Z,0.00
2017-12-01T00:26:39.967Z,0.00
2017-12-01T00:27:39.942Z,0.00
2017-12-01T00:28:39.914Z,0.00
2017-12-01T00:29:39.889Z,0.00
2017-12-01T00:30:39.862Z,0.00
2017-12-01T00:31:39.837Z,0.00
2017-12-01T00:32:39.812Z,0.00
2017-12-01T00:33:39.787Z,0.00
2017-12-01T00:34:39.760Z,0.00
2017-12-01T00:35:39.736Z,0.00
2017-12-01T00:36:39.709Z,0.00
2017-12-01T00:37:39.683Z,0.00
2017-12-01T00:38:39.658Z,0.00
2017-12-01T00:39:39.630Z,0.00
2017-12-01T00:40:39.605Z,0.00
2017-12-01T00:41:39.581Z,0.00
2017-12-01T00:42:39.555Z,0.00
2017-12-01T00:43:39.529Z,0.00
2017-12-01T00:44:39.505Z,0.00
2017-12-01T00:45:39.476Z,0.00
2017-12-01T00:46:39.451Z,0.00
2017-12-01T00:47:39.425Z,0.00
2017-12-01T00:48:39.400Z,0.00
2017-12-01T00:49:39.374Z,0.00
2017-12-01T00:50:39.350Z,0.00
2017-12-01T00:51:39.322Z,0.00
2017-12-01T00:52:39.297Z,0.00
2017-12-01T00:53:39.271Z,0.00
2017-12-01T00:54:39.244Z,0.00
2017-12-01T00:55:39.219Z,0.00
2017-12-01T00:56:39.194Z,0.00
2017-12-01T00:57:39.164Z,0.00
2017-12-01T00:58:39.144Z,0.00
2017-12-01T00:59:39.116Z,0.00
2017-12-01T01:00:39.091Z,0.00
2017-12-01T01:01:39.065Z,0.00
2017-12-01T01:02:39.040Z,0.00
2017-12-01T01:03:39.016Z,0.00
2017-12-01T01:04:38.987Z,0.00
2017-12-01T01:05:38.965Z,0.00
2017-12-01T01:06:38.934Z,0.00
2017-12-01T01:07:38.910Z,0.00
2017-12-01T01:08:38.885Z,0.00
2017-12-01T01:09:38.860Z,0.00
2017-12-01T01:10:38.833Z,0.00
2017-12-01T01:11:38.806Z,0.00
2017-12-01T01:12:38.780Z,0.00
2017-12-01T01:13:38.754Z,0.00
2017-12-01T01:14:38.728Z,0.00
2017-12-01T01:15:38.704Z,0.00
2017-12-01T01:16:38.677Z,0.00
2017-12-01T01:17:38.650Z,0.00
2017-12-01T01:18:38.625Z,0.00
2017-12-01T01:19:38.599Z,0.00
2017-12-01T01:20:38.573Z,0.00
2017-12-01T01:21:38.548Z,0.00
2017-12-01T01:22:38.519Z,0.00
2017-12-01T01:23:38.496Z,0.00
2017-12-01T01:24:38.469Z,0.00
2017-12-01T01:25:38.443Z,0.00
2017-12-01T01:26:38.417Z,0.00
2017-12-01T01:27:38.396Z,0.00
2017-12-01T01:28:38.366Z,0.00
2017-12-01T01:29:38.340Z,0.00
2017-12-01T01:30:38.312Z,0.00
2017-12-01T01:31:38.291Z,0.00
2017-12-01T01:32:38.262Z,0.00
2017-12-01T01:33:38.235Z,0.00
2017-12-01T01:34:38.212Z,0.00
2017-12-01T01:35:38.184Z,0.00
2017-12-01T01:36:38.158Z,0.00
2017-12-01T01:37:38.131Z,0.00
2017-12-01T01:38:38.105Z,0.00
2017-12-01T01:39:38.081Z,0.00
2017-12-01T01:40:38.058Z,0.00
2017-12-01T01:41:38.028Z,0.00
2017-12-01T01:42:38.002Z,0.00
2017-12-01T01:43:37.982Z,0.00
2017-12-01T01:44:37.983Z,0.00
2017-12-01T01:45:37.958Z,0.00
2017-12-01T01:46:37.913Z,0.00
2017-12-01T01:47:37.920Z,0.00
2017-12-01T01:48:37.847Z,0.00
2017-12-01T01:49:37.819Z,0.00
2017-12-01T01:50:37.795Z,0.00
2017-12-01T01:51:37.768Z,0.00
2017-12-01T01:52:37.754Z,0.00
2017-12-01T01:53:37.728Z,0.00
2017-12-01T01:54:37.690Z,0.00
2017-12-01T01:55:37.683Z,0.00
2017-12-01T01:56:37.640Z,0.00
2017-12-01T01:57:37.613Z,0.00
2017-12-01T01:58:37.586Z,0.00
2017-12-01T01:59:37.563Z,0.00
2017-12-01T02:00:37.535Z,0.00
2017-12-01T02:01:37.509Z,0.00
2017-12-01T02:02:37.483Z,0.00
2017-12-01T02:03:37.458Z,0.00
2017-12-01T02:04:37.432Z,0.00
2017-12-01T02:05:37.405Z,0.00
2017-12-01T02:06:37.380Z,0.00
2017-12-01T02:07:37.354Z,0.00
2017-12-01T02:08:37.326Z,0.00
2017-12-01T02:09:37.301Z,0.00
2017-12-01T02:10:37.276Z,0.00
2017-12-01T02:11:37.252Z,0.00
2017-12-01T02:12:37.225Z,0.00
2017-12-01T02:13:37.198Z,0.00
2017-12-01T02:14:37.172Z,0.00
2017-12-01T02:15:37.148Z,0.00
2017-12-01T02:16:37.120Z,0.00
2017-12-01T02:17:37.093Z,0.00
2017-12-01T02:18:37.068Z,0.00
2017-12-01T02:19:37.043Z,0.00
2017-12-01T02:20:37.017Z,0.00
2017-12-01T02:21:36.989Z,0.00
2017-12-01T02:22:36.964Z,0.00
2017-12-01T02:23:36.938Z,0.00
2017-12-01T02:24:36.913Z,0.00
2017-12-01T02:25:36.887Z,0.00
2017-12-01T02:26:36.860Z,0.00
2017-12-01T02:27:36.836Z,0.00
2017-12-01T02:28:36.825Z,0.00
2017-12-01T02:29:36.783Z,0.00
2017-12-01T02:30:36.757Z,0.00
2017-12-01T02:31:36.731Z,0.00
2017-12-01T02:32:36.706Z,0.00
2017-12-01T02:33:36.678Z,0.00
2017-12-01T02:34:36.652Z,0.00
2017-12-01T02:35:36.627Z,0.00
2017-12-01T02:36:36.602Z,0.00
2017-12-01T02:37:36.573Z,0.00
2017-12-01T02:38:36.549Z,0.00
2017-12-01T02:39:36.524Z,0.00
2017-12-01T02:40:36.497Z,0.00
2017-12-01T02:41:36.469Z,0.00
2017-12-01T02:42:36.442Z,0.00
2017-12-01T02:43:36.470Z,0.00
2017-12-01T02:44:36.393Z,0.00
2017-12-01T02:45:36.367Z,0.00
2017-12-01T02:46:36.348Z,0.00
2017-12-01T02:47:36.317Z,0.00
2017-12-01T02:48:36.288Z,0.00
2017-12-01T02:49:36.262Z,0.00
2017-12-01T02:50:36.235Z,0.00
2017-12-01T02:51:36.210Z,0.00
2017-12-01T02:52:36.185Z,0.00
2017-12-01T02:53:36.158Z,0.00
2017-12-01T02:54:36.133Z,0.00
2017-12-01T02:55:36.108Z,0.00
2017-12-01T02:56:36.090Z,0.00
2017-12-01T02:57:36.053Z,0.00
2017-12-01T02:58:36.026Z,0.00
2017-12-01T02:59:36.004Z,0.00
2017-12-01T03:00:35.977Z,0.00
2017-12-01T03:01:35.949Z,0.00
2017-12-01T03:02:35.924Z,0.00
2017-12-01T03:03:35.900Z,0.00
2017-12-01T03:04:35.872Z,0.00
2017-12-01T03:05:35.845Z,0.00
2017-12-01T03:06:35.821Z,0.00
2017-12-01T03:07:35.795Z,0.00
2017-12-01T03:08:35.768Z,0.00
2017-12-01T03:09:35.748Z,0.00
2017-12-01T03:10:35.714Z,0.00
2017-12-01T03:11:35.689Z,0.00
2017-12-01T03:12:35.662Z,0.00
2017-12-01T03:13:35.637Z,0.00
2017-12-01T03:14:35.608Z,0.00
2017-12-01T03:15:35.589Z,0.00
2017-12-01T03:16:35.560Z,0.00
2017-12-01T03:17:35.533Z,0.00
2017-12-01T03:18:35.505Z,0.00
2017-12-01T03:19:35.484Z,0.00
2017-12-01T03:20:35.456Z,0.00
2017-12-01T03:21:35.429Z,0.00
2017-12-01T03:22:35.403Z,0.00
2017-12-01T03:23:35.378Z,0.00
2017-12-01T03:24:35.352Z,0.00
2017-12-01T03:25:35.325Z,0.00
2017-12-01T03:26:35.299Z,0.00
2017-12-01T03:27:35.272Z,0.00
2017-12-01T03:28:35.247Z,0.00
2017-12-01T03:29:35.220Z,0.00
2017-12-01T03:30:35.193Z,0.00
2017-12-01T03:31:35.172Z,0.00
2017-12-01T03:32:35.142Z,0.00
2017-12-01T03:33:35.116Z,0.00
2017-12-01T03:34:35.089Z,0.00
2017-12-01T03:35:35.064Z,0.00
2017-12-01T03:36:35.040Z,0.00
2017-12-01T03:37:35.011Z,0.00
2017-12-01T03:38:34.994Z,0.00
2017-12-01T03:39:34.962Z,0.00
2017-12-01T03:40:34.934Z,0.00
2017-12-01T03:41:34.906Z,0.00
2017-12-01T03:42:34.881Z,0.00
2017-12-01T03:43:34.855Z,0.00
2017-12-01T03:44:34.830Z,0.00
2017-12-01T03:45:34.803Z,0.00
2017-12-01T03:46:34.776Z,0.00
2017-12-01T03:47:34.755Z,0.00
2017-12-01T03:48:34.726Z,0.00
2017-12-01T03:49:34.700Z,0.00
2017-12-01T03:50:34.672Z,0.00
2017-12-01T03:51:34.648Z,0.00
2017-12-01T03:52:34.622Z,0.00
2017-12-01T03:53:34.595Z,0.00
2017-12-01T03:54:34.569Z,0.00
2017-12-01T03:55:34.547Z,0.00
2017-12-01T03:56:34.517Z,0.00
2017-12-01T03:57:34.490Z,0.00
2017-12-01T03:58:34.464Z,0.00
2017-12-01T03:59:34.440Z,0.00
2017-12-01T04:00:34.413Z,0.00
2017-12-01T04:01:34.385Z,0.00
2017-12-01T04:02:34.360Z,0.00
2017-12-01T04:03:34.334Z,0.00
2017-12-01T04:04:34.309Z,0.00
2017-12-01T04:05:34.283Z,0.00
2017-12-01T04:06:34.256Z,0.00
2017-12-01T04:07:34.230Z,0.00
2017-12-01T04:08:34.204Z,0.00
2017-12-01T04:09:34.177Z,0.00
2017-12-01T04:10:34.152Z,0.00
2017-12-01T04:11:34.129Z,0.00
2017-12-01T04:12:34.098Z,0.00
2017-12-01T04:13:34.072Z,0.00
2017-12-01T04:14:34.047Z,0.00
2017-12-01T04:15:34.021Z,0.00
2017-12-01T04:16:33.997Z,0.00
2017-12-01T04:17:33.969Z,0.00
2017-12-01T04:18:33.943Z,0.00
2017-12-01T04:19:33.918Z,0.00
2017-12-01T04:20:33.892Z,0.00
2017-12-01T04:21:33.865Z,0.00
2017-12-01T04:22:33.839Z,0.00
2017-12-01T04:23:33.812Z,0.00
2017-12-01T04:24:33.786Z,0.00
2017-12-01T04:25:33.761Z,0.00
2017-12-01T04:26:33.734Z,0.00
2017-12-01T04:27:33.709Z,0.00
2017-12-01T04:28:33.686Z,0.00
2017-12-01T04:29:33.657Z,0.00
2017-12-01T04:30:33.630Z,0.00
2017-12-01T04:31:33.604Z,0.00
2017-12-01T04:32:33.579Z,0.00
2017-12-01T04:33:33.552Z,0.00
2017-12-01T04:34:33.526Z,0.00
2017-12-01T04:35:33.499Z,0.00
2017-12-01T04:36:33.474Z,0.00
2017-12-01T04:37:33.447Z,0.00
2017-12-01T04:38:33.423Z,0.00
2017-12-01T04:39:33.395Z,0.00
2017-12-01T04:40:33.370Z,0.00
2017-12-01T04:41:33.342Z,0.00
2017-12-01T04:42:33.317Z,0.00
2017-12-01T04:43:33.291Z,0.00
2017-12-01T04:44:33.282Z,0.00
2017-12-01T04:45:33.239Z,0.00
2017-12-01T04:46:33.212Z,0.00
2017-12-01T04:47:33.187Z,0.00
2017-12-01T04:48:33.160Z,0.00
2017-12-01T04:49:33.134Z,0.00
2017-12-01T04:50:33.108Z,0.00
2017-12-01T04:51:33.082Z,0.00
2017-12-01T04:52:33.056Z,0.00
2017-12-01T04:53:33.028Z,0.00
2017-12-01T04:54:33.006Z,0.00
2017-12-01T04:55:32.979Z,0.00
2017-12-01T04:56:32.953Z,0.00
2017-12-01T04:57:32.928Z,0.00
2017-12-01T04:58:32.902Z,0.00
2017-12-01T04:59:32.875Z,0.00
2017-12-01T05:00:32.849Z,0.00
2017-12-01T05:01:32.823Z,0.00
2017-12-01T05:02:32.796Z,0.00
2017-12-01T05:03:32.771Z,0.00
2017-12-01T05:04:32.745Z,0.00
2017-12-01T05:05:32.716Z,0.00
2017-12-01T05:06:32.692Z,0.00
2017-12-01T05:07:32.667Z,0.00
2017-12-01T05:08:32.641Z,0.00
2017-12-01T05:09:32.613Z,0.00
2017-12-01T05:10:32.590Z,0.00
2017-12-01T05:11:32.562Z,0.00
2017-12-01T05:12:32.536Z,0.00
2017-12-01T05:13:32.510Z,0.00
2017-12-01T05:14:32.486Z,0.00
2017-12-01T05:15:32.458Z,0.00
2017-12-01T05:16:32.433Z,0.00
2017-12-01T05:17:32.406Z,0.00
2017-12-01T05:18:32.380Z,0.00
2017-12-01T05:19:32.354Z,0.00
2017-12-01T05:20:32.329Z,0.00
2017-12-01T05:21:32.303Z,0.00
2017-12-01T05:22:32.277Z,0.00
2017-12-01T05:23:32.251Z,0.00
2017-12-01T05:24:32.226Z,0.00
2017-12-01T05:25:32.197Z,0.00
2017-12-01T05:26:32.173Z,0.00
2017-12-01T05:27:32.148Z,0.00
2017-12-01T05:28:32.122Z,0.00
2017-12-01T05:29:32.095Z,0.00
2017-12-01T05:30:32.076Z,0.00
2017-12-01T05:31:32.045Z,0.00
2017-12-01T05:32:32.018Z,0.00
2017-12-01T05:33:31.991Z,0.00
2017-12-01T05:34:31.966Z,0.00
2017-12-01T05:35:31.942Z,0.00
2017-12-01T05:36:31.915Z,0.00
2017-12-01T05:37:31.893Z,0.00
2017-12-01T05:38:31.862Z,0.00
2017-12-01T05:39:31.837Z,0.00
2017-12-01T05:40:31.811Z,0.00
2017-12-01T05:41:31.784Z,0.00
2017-12-01T05:42:31.762Z,0.00
2017-12-01T05:43:31.735Z,0.00
2017-12-01T05:44:31.707Z,0.00
2017-12-01T05:45:31.682Z,0.00
2017-12-01T05:46:31.655Z,0.00
2017-12-01T05:47:31.630Z,0.00
2017-12-01T05:48:31.605Z,0.00
2017-12-01T05:49:31.578Z,0.00
2017-12-01T05:50:31.553Z,0.00
2017-12-01T05:51:31.527Z,0.00
2017-12-01T05:52:31.499Z,0.00
2017-12-01T05:53:31.473Z,0.00
2017-12-01T05:54:31.446Z,0.00
2017-12-01T05:55:31.421Z,0.00
2017-12-01T05:56:31.396Z,0.00
2017-12-01T05:57:31.371Z,0.00
2017-12-01T05:58:31.342Z,0.00
2017-12-01T05:59:31.317Z,0.00
2017-12-01T06:00:31.292Z,0.00
2017-12-01T06:01:31.265Z,0.00
2017-12-01T06:02:31.239Z,0.00
2017-12-01T06:03:31.217Z,0.00
2017-12-01T06:04:31.188Z,0.00
2017-12-01T06:05:31.163Z,0.00
2017-12-01T06:06:31.136Z,0.00
2017-12-01T06:07:31.110Z,0.00
2017-12-01T06:08:31.084Z,0.00
2017-12-01T06:09:31.058Z,0.00
2017-12-01T06:10:31.031Z,0.00
2017-12-01T06:11:31.007Z,0.00
2017-12-01T06:12:30.981Z,0.00
2017-12-01T06:13:30.953Z,0.00
2017-12-01T06:14:30.926Z,0.00
2017-12-01T06:15:30.906Z,0.00
2017-12-01T06:16:30.876Z,0.00
2017-12-01T06:17:30.851Z,0.00
2017-12-01T06:18:30.824Z,0.00
2017-12-01T06:19:30.800Z,0.00
2017-12-01T06:20:30.774Z,0.00
2017-12-01T06:21:30.747Z,0.00
2017-12-01T06:22:30.720Z,0.00
2017-12-01T06:23:30.694Z,0.00
2017-12-01T06:24:30.669Z,0.00
2017-12-01T06:25:30.646Z,0.00
2017-12-01T06:26:30.615Z,0.00
2017-12-01T06:27:30.590Z,0.00
2017-12-01T06:28:30.564Z,0.00
2017-12-01T06:29:30.538Z,0.00
2017-12-01T06:30:30.513Z,0.00
2017-12-01T06:31:30.488Z,0.00
2017-12-01T06:32:30.460Z,0.00
2017-12-01T06:33:30.434Z,0.00
2017-12-01T06:34:30.408Z,0.00
2017-12-01T06:35:30.383Z,0.00
2017-12-01T06:36:30.383Z,0.00
2017-12-01T06:37:30.330Z,0.00
2017-12-01T06:38:30.304Z,0.00
2017-12-01T06:39:30.279Z,0.00
2017-12-01T06:40:30.255Z,0.00
2017-12-01T06:41:30.226Z,4.00
2017-12-01T06:42:30.199Z,4.00
2017-12-01T06:43:30.173Z,0.00
2017-12-01T06:44:30.148Z,0.00
2017-12-01T06:45:30.121Z,4.00
2017-12-01T06:46:30.094Z,4.00
2017-12-01T06:47:30.070Z,4.00
2017-12-01T06:48:30.042Z,4.00
2017-12-01T06:49:30.017Z,8.00
2017-12-01T06:50:29.991Z,4.00
2017-12-01T06:51:29.983Z,4.00
2017-12-01T06:52:29.938Z,8.00
2017-12-01T06:53:29.911Z,8.00
2017-12-01T06:54:29.886Z,8.00
2017-12-01T06:55:29.859Z,12.00
2017-12-01T06:56:29.833Z,16.00
2017-12-01T06:57:29.807Z,16.00
2017-12-01T06:58:29.781Z,20.00
2017-12-01T06:59:29.755Z,20.00
2017-12-01T07:00:29.729Z,24.00
2017-12-01T07:01:29.743Z,28.00
2017-12-01T07:02:29.677Z,32.00
2017-12-01T07:03:29.651Z,32.00
2017-12-01T07:04:29.625Z,40.00
2017-12-01T07:05:29.598Z,44.00
2017-12-01T07:06:29.572Z,48.00
2017-12-01T07:07:29.547Z,56.00
2017-12-01T07:08:29.519Z,64.00
2017-12-01T07:09:29.495Z,72.00
2017-12-01T07:10:29.471Z,80.00
2017-12-01T07:11:29.440Z,92.00
2017-12-01T07:12:29.416Z,108.00
2017-12-01T07:13:29.389Z,116.00
2017-12-01T07:14:29.361Z,128.00
2017-12-01T07:15:29.336Z,144.00
2017-12-01T07:16:29.311Z,156.00
2017-12-01T07:17:29.283Z,168.00
2017-12-01T07:18:29.260Z,176.00
2017-12-01T07:19:29.236Z,192.00
2017-12-01T07:20:29.206Z,204.00
2017-12-01T07:21:29.177Z,220.00
2017-12-01T07:22:29.153Z,236.00
2017-12-01T07:23:29.130Z,244.00
2017-12-01T07:24:29.101Z,256.00
2017-12-01T07:25:29.074Z,264.00
2017-12-01T07:26:29.050Z,260.00
2017-12-01T07:27:29.027Z,268.00
2017-12-01T07:28:28.996Z,284.00
2017-12-01T07:29:28.970Z,300.00
2017-12-01T07:30:28.944Z,320.00
2017-12-01T07:31:28.916Z,340.00
2017-12-01T07:32:28.891Z,372.00
2017-12-01T07:33:28.864Z,408.00
2017-12-01T07:34:28.841Z,444.00
2017-12-01T07:35:28.811Z,476.00
2017-12-01T07:36:28.787Z,508.00
2017-12-01T07:37:28.759Z,536.00
2017-12-01T07:38:28.733Z,560.00
2017-12-01T07:39:28.707Z,596.00
2017-12-01T07:40:28.681Z,636.00
2017-12-01T07:41:28.657Z,684.00
2017-12-01T07:42:28.629Z,740.00
2017-12-01T07:43:28.602Z,780.00
2017-12-01T07:44:28.576Z,816.00
2017-12-01T07:45:28.551Z,840.00
2017-12-01T07:46:28.524Z,860.00
2017-12-01T07:47:28.499Z,852.00
2017-12-01T07:48:28.472Z,824.00
2017-12-01T07:49:28.446Z,828.00
2017-12-01T07:50:28.425Z,852.00
2017-12-01T07:51:28.395Z,884.00
2017-12-01T07:52:28.367Z,952.00
2017-12-01T07:53:28.343Z,1036.00
2017-12-01T07:54:28.314Z,1100.00
2017-12-01T07:55:28.289Z,1144.00
2017-12-01T07:56:28.261Z,1120.00
2017-12-01T07:57:28.237Z,1060.00
2017-12-01T07:58:28.211Z,1008.00
2017-12-01T07:59:28.185Z,968.00
2017-12-01T08:00:28.159Z,996.00
2017-12-01T08:01:28.163Z,1008.00
2017-12-01T08:02:28.105Z,960.00
2017-12-01T08:03:28.080Z,976.00
2017-12-01T08:04:28.059Z,1080.00
2017-12-01T08:05:28.032Z,1092.00
2017-12-01T08:06:28.002Z,1052.00
2017-12-01T08:07:27.978Z,980.00
2017-12-01T08:08:27.951Z,984.00
2017-12-01T08:09:27.927Z,984.00
2017-12-01T08:10:27.899Z,984.00
2017-12-01T08:11:27.872Z,1000.00
2017-12-01T08:12:27.845Z,1028.00
2017-12-01T08:13:27.822Z,1092.00
2017-12-01T08:14:27.794Z,1204.00
2017-12-01T08:15:27.770Z,1288.00
2017-12-01T08:16:27.746Z,1260.00
2017-12-01T08:17:27.719Z,1224.00
2017-12-01T08:18:27.694Z,1140.00
2017-12-01T08:19:27.666Z,1140.00
2017-12-01T08:20:27.642Z,972.00
2017-12-01T08:21:27.615Z,1076.00
2017-12-01T08:22:27.590Z,1256.00
2017-12-01T08:23:27.564Z,1120.00
2017-12-01T08:24:27.541Z,1256.00
2017-12-01T08:25:27.512Z,1412.00
2017-12-01T08:26:27.529Z,1368.00
2017-12-01T08:27:27.510Z,1152.00
2017-12-01T08:28:27.436Z,1132.00
2017-12-01T08:29:27.410Z,1104.00
2017-12-01T08:30:27.385Z,1052.00
2017-12-01T08:31:27.360Z,1048.00
2017-12-01T08:32:27.334Z,1132.00
2017-12-01T08:33:27.308Z,1336.00
2017-12-01T08:34:27.282Z,1444.00
2017-12-01T08:35:27.258Z,1600.00
2017-12-01T08:36:27.238Z,1716.00
2017-12-01T08:37:27.209Z,1736.00
2017-12-01T08:38:27.181Z,1752.00
2017-12-01T08:39:27.154Z,1800.00
2017-12-01T08:40:27.129Z,1932.00
2017-12-01T08:41:27.103Z,2012.00
2017-12-01T08:42:27.078Z,2088.00
2017-12-01T08:43:27.054Z,2212.00
2017-12-01T08:44:27.027Z,2392.00
2017-12-01T08:45:27.011Z,2496.00
2017-12-01T08:46:26.974Z,2528.00
2017-12-01T08:47:26.949Z,2388.00
2017-12-01T08:48:26.925Z,2312.00
2017-12-01T08:49:26.898Z,2056.00
2017-12-01T08:50:26.874Z,1940.00
2017-12-01T08:51:26.848Z,2020.00
2017-12-01T08:52:26.823Z,2084.00
2017-12-01T08:53:26.797Z,2044.00
2017-12-01T08:54:26.772Z,2092.00
2017-12-01T08:55:26.747Z,2316.00
2017-12-01T08:56:26.722Z,2400.00
2017-12-01T08:57:26.694Z,2812.00
2017-12-01T08:58:26.669Z,3112.00
2017-12-01T08:59:26.645Z,3228.00
2017-12-01T09:00:26.619Z,3428.00
2017-12-01T09:01:26.593Z,3616.00
2017-12-01T09:02:26.569Z,3776.00
2017-12-01T09:03:26.543Z,3856.00
2017-12-01T09:04:26.517Z,3792.00
2017-12-01T09:05:26.493Z,3808.00
2017-12-01T09:06:26.467Z,3996.00
2017-12-01T09:07:26.441Z,4340.00
2017-12-01T09:08:26.419Z,4728.00
2017-12-01T09:09:26.391Z,4864.00
2017-12-01T09:10:26.364Z,4904.00
2017-12-01T09:11:26.341Z,4740.00
2017-12-01T09:12:26.315Z,4740.00
2017-12-01T09:13:26.289Z,4944.00
2017-12-01T09:14:26.264Z,5164.00
2017-12-01T09:15:26.240Z,5116.00
2017-12-01T09:16:26.216Z,4856.00
2017-12-01T09:17:26.188Z,4736.00
2017-12-01T09:18:26.163Z,4788.00
2017-12-01T09:19:26.138Z,4800.00
2017-12-01T09:20:26.114Z,4808.00
2017-12-01T09:21:26.087Z,4824.00
2017-12-01T09:22:26.063Z,4764.00
2017-12-01T09:23:26.038Z,4644.00
2017-12-01T09:24:26.013Z,4388.00
2017-12-01T09:25:25.988Z,4184.00
2017-12-01T09:26:26.053Z,4012.00
2017-12-01T09:27:25.938Z,3956.00
2017-12-01T09:28:25.914Z,4084.00
2017-12-01T09:29:25.887Z,4216.00
2017-12-01T09:30:25.862Z,4212.00
2017-12-01T09:31:25.838Z,4184.00
2017-12-01T09:32:25.814Z,4292.00
2017-12-01T09:33:25.788Z,4508.00
2017-12-01T09:34:25.767Z,4684.00
2017-12-01T09:35:25.738Z,4668.00
2017-12-01T09:36:25.711Z,4544.00
2017-12-01T09:37:25.689Z,4472.00
2017-12-01T09:38:25.663Z,4616.00
2017-12-01T09:39:25.639Z,4496.00
2017-12-01T09:40:25.614Z,4708.00
2017-12-01T09:41:25.589Z,4880.00
2017-12-01T09:42:25.571Z,5196.00
2017-12-01T09:43:25.539Z,5220.00
2017-12-01T09:44:25.514Z,5292.00
2017-12-01T09:45:25.488Z,5472.00
2017-12-01T09:46:25.463Z,5808.00
2017-12-01T09:47:25.438Z,6012.00
2017-12-01T09:48:25.416Z,6108.00
2017-12-01T09:49:25.390Z,6248.00
2017-12-01T09:50:25.364Z,6408.00
2017-12-01T09:51:25.345Z,6536.00
2017-12-01T09:52:25.317Z,6616.00
2017-12-01T09:53:25.291Z,6652.00
2017-12-01T09:54:25.265Z,6748.00
2017-12-01T09:55:25.242Z,6632.00
2017-12-01T09:56:25.217Z,6316.00
2017-12-01T09:57:25.191Z,6000.00
2017-12-01T09:58:25.167Z,5840.00
2017-12-01T09:59:25.142Z,5840.00
2017-12-01T10:00:25.119Z,5712.00
2017-12-01T10:01:25.094Z,5648.00
2017-12-01T10:02:25.070Z,5636.00
2017-12-01T10:03:25.045Z,5868.00
2017-12-01T10:04:25.023Z,5824.00
2017-12-01T10:05:24.997Z,5108.00
2017-12-01T10:06:24.973Z,4976.00
2017-12-01T10:07:24.950Z,4916.00
2017-12-01T10:08:24.927Z,4876.00
2017-12-01T10:09:24.901Z,4860.00
2017-12-01T10:10:24.876Z,4872.00
2017-12-01T10:11:24.854Z,4784.00
2017-12-01T10:12:24.829Z,4876.00
2017-12-01T10:13:24.804Z,5100.00
2017-12-01T10:14:24.781Z,5564.00
2017-12-01T10:15:24.756Z,6208.00
2017-12-01T10:16:24.732Z,6460.00
2017-12-01T10:17:24.708Z,6588.00
2017-12-01T10:18:24.683Z,6484.00
2017-12-01T10:19:24.659Z,6060.00
2017-12-01T10:20:24.637Z,5932.00
2017-12-01T10:21:24.612Z,6056.00
2017-12-01T10:22:24.587Z,6180.00
2017-12-01T10:23:24.564Z,6280.00
2017-12-01T10:24:24.538Z,6512.00
2017-12-01T10:25:24.518Z,6616.00
2017-12-01T10:26:24.491Z,6628.00
2017-12-01T10:27:24.466Z,6492.00
2017-12-01T10:28:24.444Z,6368.00
2017-12-01T10:29:24.419Z,6372.00
2017-12-01T10:30:24.396Z,6316.00
2017-12-01T10:31:24.373Z,6384.00
2017-12-01T10:32:24.355Z,6676.00
2017-12-01T10:33:24.325Z,6924.00
2017-12-01T10:34:24.302Z,6872.00
2017-12-01T10:35:24.278Z,6664.00
2017-12-01T10:36:24.254Z,6408.00
2017-12-01T10:37:24.230Z,6052.00
2017-12-01T10:38:24.215Z,5704.00
2017-12-01T10:39:24.182Z,5392.00
2017-12-01T10:40:24.159Z,5132.00
2017-12-01T10:41:24.134Z,5004.00
2017-12-01T10:42:24.112Z,4876.00
2017-12-01T10:43:24.088Z,4848.00
2017-12-01T10:44:24.072Z,5016.00
2017-12-01T10:45:24.041Z,5440.00
2017-12-01T10:46:24.017Z,5880.00
2017-12-01T10:47:23.993Z,6288.00
2017-12-01T10:48:23.971Z,6520.00
2017-12-01T10:49:23.946Z,6840.00
2017-12-01T10:50:23.923Z,7620.00
2017-12-01T10:51:23.899Z,8084.00
2017-12-01T10:52:23.876Z,10272.00
2017-12-01T10:53:23.852Z,11388.00
2017-12-01T10:54:23.832Z,12412.00
2017-12-01T10:55:23.805Z,13396.00
2017-12-01T10:56:23.791Z,13824.00
2017-12-01T10:57:23.761Z,14004.00
2017-12-01T10:58:23.736Z,14468.00
2017-12-01T10:59:23.714Z,16224.00
2017-12-01T11:00:23.690Z,15680.00
2017-12-01T11:01:23.668Z,16352.00
2017-12-01T11:02:23.645Z,20544.00
2017-12-01T11:03:23.623Z,14684.00
2017-12-01T11:04:23.604Z,14024.00
2017-12-01T11:05:23.580Z,15264.00
2017-12-01T11:06:23.559Z,17216.00
2017-12-01T11:07:23.536Z,18688.00
2017-12-01T11:08:23.516Z,25984.00
2017-12-01T11:09:23.494Z,28320.00
2017-12-01T11:10:23.472Z,30112.00
2017-12-01T11:11:23.451Z,31616.00
2017-12-01T11:12:23.432Z,31072.00
2017-12-01T11:13:23.414Z,31968.00
2017-12-01T11:14:23.391Z,30912.00
2017-12-01T11:15:23.373Z,30944.00
2017-12-01T11:16:23.354Z,33600.00
2017-12-01T11:17:23.332Z,24768.00
2017-12-01T11:18:23.323Z,22240.00
2017-12-01T11:19:23.336Z,22880.00
2017-12-01T11:20:23.283Z,14140.00
2017-12-01T11:21:23.265Z,12144.00
2017-12-01T11:22:23.245Z,23232.00
2017-12-01T11:23:23.229Z,17280.00
2017-12-01T11:24:23.211Z,14752.00
2017-12-01T11:25:23.194Z,18208.00
2017-12-01T11:26:23.179Z,21088.00
2017-12-01T11:27:23.160Z,15776.00
2017-12-01T11:28:23.143Z,12488.00
2017-12-01T11:29:23.127Z,12100.00
2017-12-01T11:30:23.108Z,13040.00
2017-12-01T11:31:23.096Z,11856.00
2017-12-01T11:32:23.092Z,11740.00
2017-12-01T11:33:23.057Z,11472.00
2017-12-01T11:34:23.039Z,10876.00
2017-12-01T11:35:23.024Z,10004.00
2017-12-01T11:36:23.004Z,9660.00
2017-12-01T11:37:22.992Z,9888.00
2017-12-01T11:38:22.971Z,10400.00
2017-12-01T11:39:22.954Z,10952.00
2017-12-01T11:40:22.935Z,10844.00
2017-12-01T11:41:22.915Z,10800.00
2017-12-01T11:42:22.902Z,10276.00
2017-12-01T11:43:22.878Z,10008.00
2017-12-01T11:44:22.860Z,10028.00
2017-12-01T11:45:22.839Z,10400.00
2017-12-01T11:46:22.821Z,10736.00
2017-12-01T11:47:22.802Z,11128.00
2017-12-01T11:48:22.799Z,11588.00
2017-12-01T11:49:22.764Z,11812.00
2017-12-01T11:50:22.742Z,12048.00
2017-12-01T11:51:22.724Z,12048.00
2017-12-01T11:52:22.710Z,11852.00
2017-12-01T11:53:22.683Z,11968.00
2017-12-01T11:54:22.663Z,12300.00
2017-12-01T11:55:22.641Z,16192.00
2017-12-01T11:56:22.622Z,12296.00
2017-12-01T11:57:22.602Z,12432.00
2017-12-01T11:58:22.583Z,13128.00
2017-12-01T11:59:22.561Z,14324.00
2017-12-01T12:00:22.541Z,14416.00
2017-12-01T12:01:22.520Z,14284.00
2017-12-01T12:02:22.500Z,14380.00
2017-12-01T12:03:22.480Z,15936.00
2017-12-01T12:04:22.459Z,16736.00
2017-12-01T12:05:22.439Z,19104.00
2017-12-01T12:06:22.418Z,17312.00
2017-12-01T12:07:22.398Z,21344.00
2017-12-01T12:08:22.378Z,13692.00
2017-12-01T12:09:22.357Z,12400.00
2017-12-01T12:10:22.337Z,11448.00
2017-12-01T12:11:22.317Z,10860.00
2017-12-01T12:12:22.316Z,10376.00
2017-12-01T12:13:22.277Z,9252.00
2017-12-01T12:14:22.257Z,8320.00
2017-12-01T12:15:22.238Z,8632.00
2017-12-01T12:16:22.218Z,7432.00
2017-12-01T12:17:22.229Z,6956.00
2017-12-01T12:18:22.175Z,6328.00
2017-12-01T12:19:22.154Z,5732.00
2017-12-01T12:20:22.139Z,5460.00
2017-12-01T12:21:22.115Z,5364.00
2017-12-01T12:22:22.095Z,5264.00
2017-12-01T12:23:22.076Z,5000.00
2017-12-01T12:24:22.055Z,4768.00
2017-12-01T12:25:22.033Z,4532.00
2017-12-01T12:26:22.011Z,4312.00
2017-12-01T12:27:21.991Z,4184.00
2017-12-01T12:28:21.970Z,3940.00
2017-12-01T12:29:21.949Z,3776.00
2017-12-01T12:30:21.928Z,3760.00
2017-12-01T12:31:21.906Z,3828.00
2017-12-01T12:32:21.884Z,3852.00
2017-12-01T12:33:21.865Z,3728.00
2017-12-01T12:34:21.842Z,3556.00
2017-12-01T12:35:21.819Z,3384.00
2017-12-01T12:36:21.796Z,3256.00
2017-12-01T12:37:21.776Z,3124.00
2017-12-01T12:38:21.754Z,3032.00
2017-12-01T12:39:21.732Z,2972.00
2017-12-01T12:40:21.709Z,2924.00
2017-12-01T12:41:21.685Z,2832.00
2017-12-01T12:42:21.664Z,2724.00
2017-12-01T12:43:21.641Z,2596.00